General Aviation Weather

Text Reports

Enter one or more of the following location identifiers separated by a space:

Zip Code, Four-Character ICAO or Three-Character IATA airport codes.

METAR - Aviation Routine Weather Report
KWLD - Winfield, Kansas
Updated at 5:54 AM GMT on December 28, 2014 (11:54 PM CST):
METAR KWLD 280554Z AUTO 00000KT 10SM CLR M06/M07 A3031 RMK AO2 SLP278 T10561072 11022 21061 400281061 50003
TAF - Terminal Area Forecast
KWLD - Winfield, Kansas
Updated at 5:54 AM GMT on December 28, 2014 (11:54 PM CST):
No TAF is currently available for this location.
Decoded:
No decoded TAF is available.
PIREP - Pilot Weather Report
KWLD - Winfield, Kansas
Updated at 5:54 AM GMT on December 28, 2014 (11:54 PM CST):
No PIREP is currently available for this location.
AIRMET - Airmens Meteorological Information
KWLD - Winfield, Kansas
Updated at 5:54 AM GMT on December 28, 2014 (11:54 PM CST):
No AIRMET is currently available for this location.
SIGMET - Significant Meteorological Information
KWLD - Winfield, Kansas
Updated at 5:54 AM GMT on December 28, 2014 (11:54 PM CST):
No SIGMET is currently available for this location.
NOTAM - Notice to Airmen
KWLD - Winfield, Kansas
Updated at 5:54 AM GMT on December 28, 2014 (11:54 PM CST):
No NOTAM is currently available for this location.
Forecast Area
KWLD - Winfield, Kansas
Updated at 5:54 AM GMT on December 28, 2014 (11:54 PM CST):
No NOTAM is currently available for this location.
Aviation Weather Maps